sensor_id;sensor_type;location;lat;lon;timestamp;pressure;altitude;pressure_sealevel;temperature;humidity
72024;BME280;59889;50.700;5.440;2023-02-14T00:01:30;101840.01;;;20.39;35.33
72024;BME280;59889;50.700;5.440;2023-02-14T00:03:55;101837.37;;;19.86;35.37
72024;BME280;59889;50.700;5.440;2023-02-14T00:06:20;101837.61;;;20.08;35.39
72024;BME280;59889;50.700;5.440;2023-02-14T00:08:45;101836.18;;;20.17;35.27
72024;BME280;59889;50.700;5.440;2023-02-14T00:11:11;101838.50;;;20.23;35.20
72024;BME280;59889;50.700;5.440;2023-02-14T00:13:35;101837.19;;;19.68;35.27
72024;BME280;59889;50.700;5.440;2023-02-14T00:16:00;101838.35;;;20.12;35.31
72024;BME280;59889;50.700;5.440;2023-02-14T00:18:26;101835.27;;;19.91;35.28
72024;BME280;59889;50.700;5.440;2023-02-14T00:20:51;101831.79;;;20.18;35.20
72024;BME280;59889;50.700;5.440;2023-02-14T00:23:16;101826.72;;;19.72;35.18
72024;BME280;59889;50.700;5.440;2023-02-14T00:25:41;101825.56;;;19.59;35.33
72024;BME280;59889;50.700;5.440;2023-02-14T00:28:06;101828.59;;;20.45;35.17
72024;BME280;59889;50.700;5.440;2023-02-14T00:30:31;101828.13;;;20.53;35.09
72024;BME280;59889;50.700;5.440;2023-02-14T00:32:56;101828.45;;;19.91;35.24
72024;BME280;59889;50.700;5.440;2023-02-14T00:35:21;101830.86;;;20.12;35.24
72024;BME280;59889;50.700;5.440;2023-02-14T00:37:46;101828.05;;;20.11;35.27
72024;BME280;59889;50.700;5.440;2023-02-14T00:40:12;101826.78;;;20.22;35.15
72024;BME280;59889;50.700;5.440;2023-02-14T00:42:36;101821.77;;;19.89;35.26
72024;BME280;59889;50.700;5.440;2023-02-14T00:45:02;101820.93;;;19.71;35.13
72024;BME280;59889;50.700;5.440;2023-02-14T00:47:27;101820.10;;;20.24;35.13
72024;BME280;59889;50.700;5.440;2023-02-14T00:49:52;101817.93;;;20.15;35.20
72024;BME280;59889;50.700;5.440;2023-02-14T00:52:17;101818.03;;;20.10;35.23
72024;BME280;59889;50.700;5.440;2023-02-14T00:54:42;101816.51;;;20.17;35.17
72024;BME280;59889;50.700;5.440;2023-02-14T00:57:07;101814.62;;;19.64;35.24
72024;BME280;59889;50.700;5.440;2023-02-14T00:59:32;101810.86;;;19.88;35.25
72024;BME280;59889;50.700;5.440;2023-02-14T01:01:57;101813.85;;;20.18;35.16
72024;BME280;59889;50.700;5.440;2023-02-14T01:04:22;101813.91;;;19.96;35.17
72024;BME280;59889;50.700;5.440;2023-02-14T01:06:47;101811.15;;;20.12;35.23
72024;BME280;59889;50.700;5.440;2023-02-14T01:09:12;101811.69;;;20.07;35.28
72024;BME280;59889;50.700;5.440;2023-02-14T01:11:38;101811.87;;;20.19;35.14
72024;BME280;59889;50.700;5.440;2023-02-14T01:14:03;101811.79;;;20.16;35.18
72024;BME280;59889;50.700;5.440;2023-02-14T01:16:28;101813.45;;;20.24;35.09
72024;BME280;59889;50.700;5.440;2023-02-14T01:18:53;101810.57;;;20.21;35.10
72024;BME280;59889;50.700;5.440;2023-02-14T01:21:20;101809.15;;;19.90;35.18
72024;BME280;59889;50.700;5.440;2023-02-14T01:23:43;101806.41;;;20.10;35.23
72024;BME280;59889;50.700;5.440;2023-02-14T01:26:09;101807.35;;;20.17;35.12
72024;BME280;59889;50.700;5.440;2023-02-14T01:28:34;101810.91;;;20.15;35.13
72024;BME280;59889;50.700;5.440;2023-02-14T01:31:07;101809.19;;;19.61;35.25
72024;BME280;59889;50.700;5.440;2023-02-14T01:33:24;101808.58;;;20.20;35.09
72024;BME280;59889;50.700;5.440;2023-02-14T01:35:48;101807.96;;;20.19;35.10
72024;BME280;59889;50.700;5.440;2023-02-14T01:38:14;101810.13;;;20.21;35.06
72024;BME280;59889;50.700;5.440;2023-02-14T01:40:41;101808.28;;;20.14;35.13
72024;BME280;59889;50.700;5.440;2023-02-14T01:43:04;101809.80;;;19.63;35.18
72024;BME280;59889;50.700;5.440;2023-02-14T01:45:29;101810.31;;;20.09;35.17
72024;BME280;59889;50.700;5.440;2023-02-14T01:47:55;101809.28;;;20.13;35.17
72024;BME280;59889;50.700;5.440;2023-02-14T01:50:22;101806.71;;;20.15;35.09
72024;BME280;59889;50.700;5.440;2023-02-14T01:52:46;101804.98;;;20.42;35.06
72024;BME280;59889;50.700;5.440;2023-02-14T01:55:13;101802.80;;;20.19;35.08
72024;BME280;59889;50.700;5.440;2023-02-14T01:57:39;101802.38;;;20.13;35.16
72024;BME280;59889;50.700;5.440;2023-02-14T02:00:00;101801.06;;;19.84;34.89
72024;BME280;59889;50.700;5.440;2023-02-14T02:02:24;101797.05;;;20.27;34.98
72024;BME280;59889;50.700;5.440;2023-02-14T02:04:52;101793.83;;;19.97;35.04
72024;BME280;59889;50.700;5.440;2023-02-14T02:07:20;101794.32;;;19.90;35.12
72024;BME280;59889;50.700;5.440;2023-02-14T02:09:43;101794.54;;;19.83;35.21
72024;BME280;59889;50.700;5.440;2023-02-14T02:12:05;101795.95;;;20.24;34.97
72024;BME280;59889;50.700;5.440;2023-02-14T02:14:30;101795.27;;;19.93;35.08
72024;BME280;59889;50.700;5.440;2023-02-14T02:17:06;101793.64;;;19.85;35.17
72024;BME280;59889;50.700;5.440;2023-02-14T02:22:00;101794.37;;;20.15;35.10
72024;BME280;59889;50.700;5.440;2023-02-14T02:24:22;101794.33;;;20.15;35.11
72024;BME280;59889;50.700;5.440;2023-02-14T02:26:51;101795.81;;;20.27;34.95
72024;BME280;59889;50.700;5.440;2023-02-14T02:31:38;101795.29;;;20.26;34.97
72024;BME280;59889;50.700;5.440;2023-02-14T02:36:27;101795.63;;;19.98;35.04
72024;BME280;59889;50.700;5.440;2023-02-14T02:38:52;101790.66;;;20.27;34.93
72024;BME280;59889;50.700;5.440;2023-02-14T02:41:14;101787.53;;;19.88;35.10
72024;BME280;59889;50.700;5.440;2023-02-14T02:43:41;101786.56;;;20.16;35.01
72024;BME280;59889;50.700;5.440;2023-02-14T02:46:00;101787.37;;;20.35;34.84
72024;BME280;59889;50.700;5.440;2023-02-14T02:48:22;101785.59;;;20.14;35.05
72024;BME280;59889;50.700;5.440;2023-02-14T02:50:50;101787.24;;;20.23;34.98
72024;BME280;59889;50.700;5.440;2023-02-14T02:53:17;101785.34;;;19.81;35.16
72024;BME280;59889;50.700;5.440;2023-02-14T02:55:41;101783.57;;;20.13;35.09
72024;BME280;59889;50.700;5.440;2023-02-14T02:58:02;101779.82;;;20.14;35.06
72024;BME280;59889;50.700;5.440;2023-02-14T03:00:27;101783.58;;;20.16;35.04
72024;BME280;59889;50.700;5.440;2023-02-14T03:02:54;101787.63;;;20.22;34.98
72024;BME280;59889;50.700;5.440;2023-02-14T03:05:17;101788.10;;;20.24;34.95
72024;BME280;59889;50.700;5.440;2023-02-14T03:07:42;101789.39;;;20.20;34.97
72024;BME280;59889;50.700;5.440;2023-02-14T03:10:11;101789.48;;;19.92;34.98
72024;BME280;59889;50.700;5.440;2023-02-14T03:12:46;101792.32;;;20.14;35.04
72024;BME280;59889;50.700;5.440;2023-02-14T03:15:03;101792.88;;;20.16;35.01
72024;BME280;59889;50.700;5.440;2023-02-14T03:17:28;101795.58;;;20.11;35.01
72024;BME280;59889;50.700;5.440;2023-02-14T03:19:55;101798.06;;;20.14;35.02
72024;BME280;59889;50.700;5.440;2023-02-14T03:22:20;101797.58;;;20.12;35.00
72024;BME280;59889;50.700;5.440;2023-02-14T03:24:44;101798.37;;;20.18;34.98
72024;BME280;59889;50.700;5.440;2023-02-14T03:27:05;101802.16;;;20.37;35.05
72024;BME280;59889;50.700;5.440;2023-02-14T03:29:35;101805.08;;;19.97;35.19
72024;BME280;59889;50.700;5.440;2023-02-14T03:31:58;101802.47;;;20.02;35.11
72024;BME280;59889;50.700;5.440;2023-02-14T03:34:23;101804.43;;;20.06;35.13
72024;BME280;59889;50.700;5.440;2023-02-14T03:36:47;101804.37;;;20.16;35.00
72024;BME280;59889;50.700;5.440;2023-02-14T03:39:12;101804.21;;;19.95;34.94
72024;BME280;59889;50.700;5.440;2023-02-14T03:41:39;101805.36;;;20.20;34.91
72024;BME280;59889;50.700;5.440;2023-02-14T03:44:00;101801.78;;;19.63;35.02
72024;BME280;59889;50.700;5.440;2023-02-14T03:46:26;101803.13;;;20.13;35.02
72024;BME280;59889;50.700;5.440;2023-02-14T03:48:50;101801.55;;;20.26;35.15
72024;BME280;59889;50.700;5.440;2023-02-14T03:51:14;101798.81;;;20.12;35.03
72024;BME280;59889;50.700;5.440;2023-02-14T03:53:41;101795.94;;;19.87;35.05
72024;BME280;59889;50.700;5.440;2023-02-14T03:56:09;101797.14;;;20.16;34.98
72024;BME280;59889;50.700;5.440;2023-02-14T03:58:31;101797.07;;;20.11;35.01
72024;BME280;59889;50.700;5.440;2023-02-14T04:00:59;101793.71;;;20.05;35.06
72024;BME280;59889;50.700;5.440;2023-02-14T04:03:19;101791.85;;;19.91;34.96
72024;BME280;59889;50.700;5.440;2023-02-14T04:05:45;101790.89;;;20.10;35.01
72024;BME280;59889;50.700;5.440;2023-02-14T04:08:10;101793.39;;;19.99;35.13
72024;BME280;59889;50.700;5.440;2023-02-14T04:10:34;101792.89;;;20.32;35.04
72024;BME280;59889;50.700;5.440;2023-02-14T04:12:59;101793.86;;;19.64;35.01
72024;BME280;59889;50.700;5.440;2023-02-14T04:15:24;101792.47;;;19.85;35.01
72024;BME280;59889;50.700;5.440;2023-02-14T04:17:49;101792.54;;;20.12;34.93
72024;BME280;59889;50.700;5.440;2023-02-14T04:20:14;101794.02;;;19.83;35.01
72024;BME280;59889;50.700;5.440;2023-02-14T04:22:40;101792.05;;;20.22;35.08
72024;BME280;59889;50.700;5.440;2023-02-14T04:25:05;101792.56;;;20.02;35.05
72024;BME280;59889;50.700;5.440;2023-02-14T04:27:30;101796.18;;;20.01;35.05
72024;BME280;59889;50.700;5.440;2023-02-14T04:29:55;101796.86;;;20.03;35.01
72024;BME280;59889;50.700;5.440;2023-02-14T04:32:21;101795.45;;;20.04;35.00
72024;BME280;59889;50.700;5.440;2023-02-14T04:34:45;101792.32;;;20.04;34.96
72024;BME280;59889;50.700;5.440;2023-02-14T04:37:10;101791.68;;;20.05;34.94
72024;BME280;59889;50.700;5.440;2023-02-14T04:39:36;101789.13;;;19.98;35.01
72024;BME280;59889;50.700;5.440;2023-02-14T04:42:00;101789.62;;;19.83;35.04
72024;BME280;59889;50.700;5.440;2023-02-14T04:44:25;101788.94;;;19.74;33.45
72024;BME280;59889;50.700;5.440;2023-02-14T04:46:50;101788.17;;;19.83;33.57
72024;BME280;59889;50.700;5.440;2023-02-14T04:49:17;101786.39;;;19.97;33.63
72024;BME280;59889;50.700;5.440;2023-02-14T04:51:41;101785.55;;;19.57;33.58
72024;BME280;59889;50.700;5.440;2023-02-14T04:54:06;101786.53;;;19.29;33.22
72024;BME280;59889;50.700;5.440;2023-02-14T04:56:32;101787.43;;;19.80;32.95
72024;BME280;59889;50.700;5.440;2023-02-14T04:58:57;101784.58;;;19.56;32.64
72024;BME280;59889;50.700;5.440;2023-02-14T05:01:23;101782.93;;;19.45;32.61
72024;BME280;59889;50.700;5.440;2023-02-14T05:03:49;101781.82;;;19.95;32.37
72024;BME280;59889;50.700;5.440;2023-02-14T05:06:13;101778.38;;;19.68;32.25
72024;BME280;59889;50.700;5.440;2023-02-14T05:08:39;101778.02;;;19.60;32.17
72024;BME280;59889;50.700;5.440;2023-02-14T05:11:05;101775.81;;;19.45;32.25
72024;BME280;59889;50.700;5.440;2023-02-14T05:13:30;101771.35;;;19.85;33.02
72024;BME280;59889;50.700;5.440;2023-02-14T05:15:55;101772.08;;;19.34;33.51
72024;BME280;59889;50.700;5.440;2023-02-14T05:18:21;101767.04;;;19.63;33.73
72024;BME280;59889;50.700;5.440;2023-02-14T05:20:48;101768.66;;;19.74;33.69
72024;BME280;59889;50.700;5.440;2023-02-14T05:23:11;101768.30;;;19.42;33.80
72024;BME280;59889;50.700;5.440;2023-02-14T05:25:37;101767.72;;;19.47;33.78
72024;BME280;59889;50.700;5.440;2023-02-14T05:28:02;101770.65;;;19.35;34.06
72024;BME280;59889;50.700;5.440;2023-02-14T05:30:27;101766.98;;;19.52;33.97
72024;BME280;59889;50.700;5.440;2023-02-14T05:32:53;101764.65;;;19.86;34.16
72024;BME280;59889;50.700;5.440;2023-02-14T05:35:18;101760.49;;;19.49;34.34
72024;BME280;59889;50.700;5.440;2023-02-14T05:37:43;101760.50;;;19.31;34.30
72024;BME280;59889;50.700;5.440;2023-02-14T05:40:09;101758.27;;;19.58;34.30
72024;BME280;59889;50.700;5.440;2023-02-14T05:42:34;101758.00;;;19.51;34.42
72024;BME280;59889;50.700;5.440;2023-02-14T05:44:59;101759.41;;;18.80;34.45
72024;BME280;59889;50.700;5.440;2023-02-14T05:47:24;101758.71;;;19.36;34.33
72024;BME280;59889;50.700;5.440;2023-02-14T05:49:49;101760.39;;;19.65;34.30
72024;BME280;59889;50.700;5.440;2023-02-14T05:52:15;101757.47;;;19.51;34.46
72024;BME280;59889;50.700;5.440;2023-02-14T05:54:41;101758.47;;;19.62;34.34
72024;BME280;59889;50.700;5.440;2023-02-14T05:57:06;101756.02;;;19.54;34.47
72024;BME280;59889;50.700;5.440;2023-02-14T05:59:31;101753.97;;;19.48;34.53
72024;BME280;59889;50.700;5.440;2023-02-14T06:01:57;101753.23;;;19.58;34.42
72024;BME280;59889;50.700;5.440;2023-02-14T06:04:22;101752.92;;;19.61;34.38
72024;BME280;59889;50.700;5.440;2023-02-14T06:06:47;101750.71;;;19.60;34.42
72024;BME280;59889;50.700;5.440;2023-02-14T06:09:12;101746.42;;;19.43;34.62
72024;BME280;59889;50.700;5.440;2023-02-14T06:11:37;101746.29;;;19.45;34.62
72024;BME280;59889;50.700;5.440;2023-02-14T06:14:02;101745.38;;;19.28;34.55
72024;BME280;59889;50.700;5.440;2023-02-14T06:16:27;101746.06;;;19.22;34.63
72024;BME280;59889;50.700;5.440;2023-02-14T06:18:53;101748.61;;;19.61;34.44
72024;BME280;59889;50.700;5.440;2023-02-14T06:21:18;101751.92;;;19.59;34.47
72024;BME280;59889;50.700;5.440;2023-02-14T06:23:43;101755.08;;;19.68;34.64
72024;BME280;59889;50.700;5.440;2023-02-14T06:26:08;101753.63;;;19.80;34.56
72024;BME280;59889;50.700;5.440;2023-02-14T06:28:33;101752.60;;;19.27;34.59
72024;BME280;59889;50.700;5.440;2023-02-14T06:30:59;101753.07;;;19.25;34.63
72024;BME280;59889;50.700;5.440;2023-02-14T06:33:24;101755.48;;;19.54;34.58
72024;BME280;59889;50.700;5.440;2023-02-14T06:35:49;101755.17;;;19.77;34.60
72024;BME280;59889;50.700;5.440;2023-02-14T06:38:14;101756.66;;;19.50;34.63
72024;BME280;59889;50.700;5.440;2023-02-14T06:40:39;101755.72;;;19.50;34.74
72024;BME280;59889;50.700;5.440;2023-02-14T06:43:04;101760.06;;;19.47;34.89
72024;BME280;59889;50.700;5.440;2023-02-14T06:45:29;101760.01;;;19.52;35.01
72024;BME280;59889;50.700;5.440;2023-02-14T06:47:55;101763.10;;;19.23;35.12
72024;BME280;59889;50.700;5.440;2023-02-14T06:50:20;101762.99;;;19.47;35.06
72024;BME280;59889;50.700;5.440;2023-02-14T06:52:45;101759.23;;;19.51;34.99
72024;BME280;59889;50.700;5.440;2023-02-14T06:55:10;101762.27;;;19.20;35.15
72024;BME280;59889;50.700;5.440;2023-02-14T06:57:36;101761.90;;;19.57;35.11
72024;BME280;59889;50.700;5.440;2023-02-14T07:00:01;101763.79;;;19.30;35.24
72024;BME280;59889;50.700;5.440;2023-02-14T07:02:26;101763.80;;;19.57;35.24
72024;BME280;59889;50.700;5.440;2023-02-14T07:04:51;101762.23;;;19.82;35.26
72024;BME280;59889;50.700;5.440;2023-02-14T07:07:16;101763.46;;;19.36;35.28
72024;BME280;59889;50.700;5.440;2023-02-14T07:09:42;101767.02;;;19.22;35.50
72024;BME280;59889;50.700;5.440;2023-02-14T07:12:07;101766.40;;;19.56;35.35
72024;BME280;59889;50.700;5.440;2023-02-14T07:14:32;101764.03;;;19.78;35.32
72024;BME280;59889;50.700;5.440;2023-02-14T07:16:58;101763.93;;;19.58;35.29
72024;BME280;59889;50.700;5.440;2023-02-14T07:19:22;101767.39;;;19.55;35.31
72024;BME280;59889;50.700;5.440;2023-02-14T07:21:47;101768.72;;;19.54;35.34
72024;BME280;59889;50.700;5.440;2023-02-14T07:24:12;101772.23;;;19.45;35.42
72024;BME280;59889;50.700;5.440;2023-02-14T07:26:37;101770.72;;;19.66;35.19
72024;BME280;59889;50.700;5.440;2023-02-14T07:29:03;101772.47;;;19.60;35.25
72024;BME280;59889;50.700;5.440;2023-02-14T07:31:29;101771.74;;;19.81;34.72
72024;BME280;59889;50.700;5.440;2023-02-14T07:33:54;101773.67;;;20.02;34.39
72024;BME280;59889;50.700;5.440;2023-02-14T07:36:19;101774.46;;;20.06;34.05
72024;BME280;59889;50.700;5.440;2023-02-14T07:38:44;101776.08;;;20.46;33.81
72024;BME280;59889;50.700;5.440;2023-02-14T07:41:09;101772.82;;;20.31;33.96
72024;BME280;59889;50.700;5.440;2023-02-14T07:43:34;101773.98;;;20.40;33.86
72024;BME280;59889;50.700;5.440;2023-02-14T07:46:00;101774.53;;;19.61;34.22
72024;BME280;59889;50.700;5.440;2023-02-14T07:48:24;101773.66;;;20.18;34.07
72024;BME280;59889;50.700;5.440;2023-02-14T07:50:49;101774.20;;;20.10;34.20
72024;BME280;59889;50.700;5.440;2023-02-14T07:53:15;101770.85;;;20.03;34.26
72024;BME280;59889;50.700;5.440;2023-02-14T07:55:40;101771.55;;;20.22;34.34
72024;BME280;59889;50.700;5.440;2023-02-14T07:58:05;101768.33;;;19.66;34.71
72024;BME280;59889;50.700;5.440;2023-02-14T08:00:30;101771.05;;;20.06;34.22
72024;BME280;59889;50.700;5.440;2023-02-14T08:02:55;101770.71;;;20.06;34.49
72024;BME280;59889;50.700;5.440;2023-02-14T08:05:20;101766.63;;;19.68;34.69
72024;BME280;59889;50.700;5.440;2023-02-14T08:07:45;101766.77;;;20.05;34.49
72024;BME280;59889;50.700;5.440;2023-02-14T08:10:11;101766.86;;;20.01;34.27
72024;BME280;59889;50.700;5.440;2023-02-14T08:12:35;101767.64;;;19.84;34.51
72024;BME280;59889;50.700;5.440;2023-02-14T08:15:00;101770.71;;;19.88;34.42
72024;BME280;59889;50.700;5.440;2023-02-14T08:17:25;101771.54;;;19.89;34.71
72024;BME280;59889;50.700;5.440;2023-02-14T08:19:50;101774.00;;;19.80;34.54
72024;BME280;59889;50.700;5.440;2023-02-14T08:22:16;101771.70;;;19.85;34.50
72024;BME280;59889;50.700;5.440;2023-02-14T08:24:41;101768.37;;;20.07;34.53
72024;BME280;59889;50.700;5.440;2023-02-14T08:27:06;101767.18;;;20.04;34.57
72024;BME280;59889;50.700;5.440;2023-02-14T08:29:31;101765.57;;;20.33;34.49
72024;BME280;59889;50.700;5.440;2023-02-14T08:31:57;101766.67;;;20.10;34.47
72024;BME280;59889;50.700;5.440;2023-02-14T08:34:22;101769.68;;;20.03;34.61
72024;BME280;59889;50.700;5.440;2023-02-14T08:36:47;101767.96;;;19.72;34.67
72024;BME280;59889;50.700;5.440;2023-02-14T08:39:12;101769.75;;;19.96;34.36
72024;BME280;59889;50.700;5.440;2023-02-14T08:41:37;101768.47;;;20.14;34.45
72024;BME280;59889;50.700;5.440;2023-02-14T08:44:02;101770.09;;;19.78;34.61
72024;BME280;59889;50.700;5.440;2023-02-14T08:46:27;101771.11;;;19.78;34.61
72024;BME280;59889;50.700;5.440;2023-02-14T08:48:52;101771.95;;;19.74;34.67
72024;BME280;59889;50.700;5.440;2023-02-14T08:51:18;101774.51;;;20.12;34.49
72024;BME280;59889;50.700;5.440;2023-02-14T08:53:43;101772.83;;;19.67;34.45
72024;BME280;59889;50.700;5.440;2023-02-14T08:56:11;101772.31;;;19.69;34.41
72024;BME280;59889;50.700;5.440;2023-02-14T08:58:33;101772.28;;;19.80;34.58
72024;BME280;59889;50.700;5.440;2023-02-14T09:00:58;101772.44;;;19.64;34.49
72024;BME280;59889;50.700;5.440;2023-02-14T09:03:23;101773.38;;;19.68;34.42
72024;BME280;59889;50.700;5.440;2023-02-14T09:05:48;101772.87;;;19.95;34.39
72024;BME280;59889;50.700;5.440;2023-02-14T09:08:13;101772.44;;;19.94;34.41
72024;BME280;59889;50.700;5.440;2023-02-14T09:10:38;101770.13;;;19.78;34.58
72024;BME280;59889;50.700;5.440;2023-02-14T09:13:03;101770.26;;;19.89;34.48
72024;BME280;59889;50.700;5.440;2023-02-14T09:15:28;101767.29;;;19.90;34.48
72024;BME280;59889;50.700;5.440;2023-02-14T09:17:53;101767.80;;;20.18;34.44
72024;BME280;59889;50.700;5.440;2023-02-14T09:20:19;101766.45;;;20.14;34.50
72024;BME280;59889;50.700;5.440;2023-02-14T09:22:45;101767.31;;;19.94;34.44
72024;BME280;59889;50.700;5.440;2023-02-14T09:25:10;101766.48;;;20.15;34.50
72024;BME280;59889;50.700;5.440;2023-02-14T09:27:35;101763.08;;;20.16;34.46
72024;BME280;59889;50.700;5.440;2023-02-14T09:30:00;101760.31;;;19.90;34.47
72024;BME280;59889;50.700;5.440;2023-02-14T09:32:25;101755.76;;;19.81;34.61
72024;BME280;59889;50.700;5.440;2023-02-14T09:34:50;101752.25;;;20.20;34.43
72024;BME280;59889;50.700;5.440;2023-02-14T09:37:15;101747.80;;;19.99;34.40
72024;BME280;59889;50.700;5.440;2023-02-14T09:39:40;101743.39;;;20.01;34.36
72024;BME280;59889;50.700;5.440;2023-02-14T09:42:21;101741.98;;;19.55;34.64
72024;BME280;59889;50.700;5.440;2023-02-14T09:44:33;101741.69;;;20.19;34.45
72024;BME280;59889;50.700;5.440;2023-02-14T09:47:01;101740.59;;;19.95;34.46
72024;BME280;59889;50.700;5.440;2023-02-14T09:49:28;101742.32;;;20.20;34.45
72024;BME280;59889;50.700;5.440;2023-02-14T09:51:50;101739.67;;;20.18;34.46
72024;BME280;59889;50.700;5.440;2023-02-14T09:54:13;101739.15;;;20.19;34.42
72024;BME280;59889;50.700;5.440;2023-02-14T09:56:44;101737.80;;;19.92;34.46
72024;BME280;59889;50.700;5.440;2023-02-14T09:59:06;101735.58;;;19.99;34.38
72024;BME280;59889;50.700;5.440;2023-02-14T10:01:31;101735.13;;;20.18;34.47
72024;BME280;59889;50.700;5.440;2023-02-14T10:04:03;101734.98;;;20.10;34.54
72024;BME280;59889;50.700;5.440;2023-02-14T10:06:31;101731.78;;;19.84;34.58
72024;BME280;59889;50.700;5.440;2023-02-14T10:08:50;101731.82;;;20.19;34.46
72024;BME280;59889;50.700;5.440;2023-02-14T10:11:10;101731.18;;;20.09;34.55
72024;BME280;59889;50.700;5.440;2023-02-14T10:13:38;101730.83;;;20.07;34.61
72024;BME280;59889;50.700;5.440;2023-02-14T10:16:02;101729.73;;;19.83;34.62
72024;BME280;59889;50.700;5.440;2023-02-14T10:18:26;101730.73;;;20.00;34.72
72024;BME280;59889;50.700;5.440;2023-02-14T10:20:51;101730.91;;;20.31;34.62
72024;BME280;59889;50.700;5.440;2023-02-14T10:23:25;101731.33;;;20.32;34.65
72024;BME280;59889;50.700;5.440;2023-02-14T10:25:43;101731.45;;;20.36;34.59
72024;BME280;59889;50.700;5.440;2023-02-14T10:28:04;101731.68;;;19.90;34.57
72024;BME280;59889;50.700;5.440;2023-02-14T10:30:36;101727.84;;;20.16;34.55
72024;BME280;59889;50.700;5.440;2023-02-14T10:33:01;101727.88;;;20.06;34.65
72024;BME280;59889;50.700;5.440;2023-02-14T10:35:29;101727.71;;;19.98;34.47
72024;BME280;59889;50.700;5.440;2023-02-14T10:37:54;101727.18;;;20.06;34.67
72024;BME280;59889;50.700;5.440;2023-02-14T10:40:24;101726.88;;;20.00;34.76
72024;BME280;59889;50.700;5.440;2023-02-14T10:42:39;101723.00;;;20.01;34.72
72024;BME280;59889;50.700;5.440;2023-02-14T10:45:08;101723.08;;;19.60;34.68
72024;BME280;59889;50.700;5.440;2023-02-14T10:47:33;101718.44;;;19.85;34.64
72024;BME280;59889;50.700;5.440;2023-02-14T10:49:55;101716.77;;;20.01;34.75
72024;BME280;59889;50.700;5.440;2023-02-14T10:52:20;101716.54;;;19.85;34.65
72024;BME280;59889;50.700;5.440;2023-02-14T10:54:42;101713.36;;;20.09;34.66
72024;BME280;59889;50.700;5.440;2023-02-14T10:57:11;101713.37;;;20.05;34.71
72024;BME280;59889;50.700;5.440;2023-02-14T10:59:34;101709.33;;;20.36;34.64
72024;BME280;59889;50.700;5.440;2023-02-14T11:01:55;101708.26;;;20.29;34.72
72024;BME280;59889;50.700;5.440;2023-02-14T11:04:21;101705.11;;;19.97;34.81
72024;BME280;59889;50.700;5.440;2023-02-14T11:06:45;101704.85;;;20.07;34.68
72024;BME280;59889;50.700;5.440;2023-02-14T11:09:10;101705.06;;;20.26;34.76
72024;BME280;59889;50.700;5.440;2023-02-14T11:11:38;101704.09;;;20.01;34.78
72024;BME280;59889;50.700;5.440;2023-02-14T11:16:30;101702.28;;;19.95;34.86
72024;BME280;59889;50.700;5.440;2023-02-14T11:21:16;101698.77;;;19.63;34.95
72024;BME280;59889;50.700;5.440;2023-02-14T11:23:43;101698.56;;;19.65;35.00
72024;BME280;59889;50.700;5.440;2023-02-14T11:26:13;101693.90;;;19.96;34.87
72024;BME280;59889;50.700;5.440;2023-02-14T11:28:33;101693.48;;;20.07;34.72
72024;BME280;59889;50.700;5.440;2023-02-14T11:31:07;101691.37;;;20.23;34.77
72024;BME280;59889;50.700;5.440;2023-02-14T11:33:31;101686.07;;;19.61;34.93
72024;BME280;59889;50.700;5.440;2023-02-14T11:35:49;101682.78;;;19.72;34.78
72024;BME280;59889;50.700;5.440;2023-02-14T11:38:22;101677.52;;;19.74;34.72
72024;BME280;59889;50.700;5.440;2023-02-14T11:40:38;101675.66;;;20.00;34.70
72024;BME280;59889;50.700;5.440;2023-02-14T11:45:31;101666.21;;;19.58;34.93
72024;BME280;59889;50.700;5.440;2023-02-14T11:48:06;101662.19;;;19.86;34.90
72024;BME280;59889;50.700;5.440;2023-02-14T11:50:22;101659.11;;;19.85;34.90
72024;BME280;59889;50.700;5.440;2023-02-14T11:52:49;101657.06;;;19.58;34.95
72024;BME280;59889;50.700;5.440;2023-02-14T11:55:21;101648.76;;;19.68;34.84
72024;BME280;59889;50.700;5.440;2023-02-14T11:57:34;101641.06;;;19.89;34.86
72024;BME280;59889;50.700;5.440;2023-02-14T12:00:00;101635.24;;;19.30;35.02
72024;BME280;59889;50.700;5.440;2023-02-14T12:02:27;101629.77;;;19.52;35.07
72024;BME280;59889;50.700;5.440;2023-02-14T12:04:49;101627.06;;;19.64;34.93
72024;BME280;59889;50.700;5.440;2023-02-14T12:07:16;101626.27;;;19.45;34.87
72024;BME280;59889;50.700;5.440;2023-02-14T12:09:38;101625.79;;;19.63;34.93
72024;BME280;59889;50.700;5.440;2023-02-14T12:14:32;101613.08;;;19.30;35.07
72024;BME280;59889;50.700;5.440;2023-02-14T12:16:59;101608.19;;;19.59;35.02
72024;BME280;59889;50.700;5.440;2023-02-14T12:19:22;101604.83;;;19.85;35.02
72024;BME280;59889;50.700;5.440;2023-02-14T12:21:49;101602.93;;;19.80;35.06
72024;BME280;59889;50.700;5.440;2023-02-14T12:24:16;101601.61;;;19.63;34.98
72024;BME280;59889;50.700;5.440;2023-02-14T12:26:36;101601.60;;;20.21;34.85
72024;BME280;59889;50.700;5.440;2023-02-14T12:29:05;101596.40;;;19.65;34.94
72024;BME280;59889;50.700;5.440;2023-02-14T12:31:24;101590.56;;;19.65;34.94
72024;BME280;59889;50.700;5.440;2023-02-14T12:33:49;101589.78;;;19.61;34.99
72024;BME280;59889;50.700;5.440;2023-02-14T12:36:24;101589.18;;;19.66;34.93
72024;BME280;59889;50.700;5.440;2023-02-14T12:38:45;101584.89;;;19.92;34.90
72024;BME280;59889;50.700;5.440;2023-02-14T12:41:15;101584.09;;;19.72;34.85
72024;BME280;59889;50.700;5.440;2023-02-14T12:43:44;101586.11;;;19.64;34.98
72024;BME280;59889;50.700;5.440;2023-02-14T12:46:06;101585.67;;;19.89;34.94
72024;BME280;59889;50.700;5.440;2023-02-14T12:48:26;101583.66;;;19.90;34.97
72024;BME280;59889;50.700;5.440;2023-02-14T12:50:46;101576.47;;;19.78;34.83
72024;BME280;59889;50.700;5.440;2023-02-14T12:53:24;101571.16;;;19.54;34.85
72024;BME280;59889;50.700;5.440;2023-02-14T12:55:44;101564.46;;;19.74;34.88